M I D A S
Marine Information and Data Acquisition System
Tripno 2176 of the Zeeleeuw from 2011-07-07 06:17:24 to 2011-07-07 14:18:31
Back to CruiseResearch ActivitiesStationsMapUnderway DataData graphs

EquipmentUnitsComment
TimeDGPSUTC
LatitudeDGPSDM.mWGS84
LongitudeDGPSDM.mWGS84
HeadingGyrodeg 
SOGDGPSknotsSpeed over ground
COGDGPSdegCourse over ground
DepthEcho soundermeters200 kHz
Missing or incorrect values are displayed as -999
Navigation data collected by the RV Zeeleeuw from 2011-07-07 06:18:47 to 2011-07-07 14:28:43
Time Latitude Longitude Heading SOG COG Depth
2011-07-07 06:19:53 51°13.654 2°55.941 109.7 4.4 291 -999
2011-07-07 06:20:53 51°13.681 2°55.827 103.4 3.9 288 -999
2011-07-07 06:21:51 51°13.688 2°55.752 78.4 2.2 269 13.1
2011-07-07 06:22:50 51°13.689 2°55.725 46.5 0.4 341 13.8
2011-07-07 06:23:50 51°13.714 2°55.725 350.8 2 348 13.4
2011-07-07 06:24:49 51°13.749 2°55.698 332.3 2.7 333 12.8
2011-07-07 06:25:49 51°13.795 2°55.659 333.1 3.5 334 12.9
2011-07-07 06:26:49 51°13.849 2°55.632 351.4 3 350 12.8
2011-07-07 06:27:49 51°13.891 2°55.632 10.9 2.2 8 12.9
2011-07-07 06:28:49 51°13.924 2°55.641 10.2 1.8 9 13.2
2011-07-07 06:29:50 51°13.949 2°55.646 5.2 0.9 6 13.1
2011-07-07 06:30:49 51°13.951 2°55.646 359.1 0.6 186 13.3
2011-07-07 06:31:52 51°13.939 2°55.646 355.9 0.6 178 13.1
2011-07-07 06:32:51 51°13.932 2°55.648 354.1 0.2 160 13
2011-07-07 06:33:49 51°13.93 2°55.65 349.8 0.2 121 12.9
2011-07-07 06:34:49 51°13.939 2°55.644 334.2 2.3 332 12.6
2011-07-07 06:35:49 51°14.021 2°55.559 325.9 8.7 324 12.7
2011-07-07 06:36:50 51°14.154 2°55.415 327.9 9.7 328 5
2011-07-07 06:37:50 51°14.29 2°55.28 330.9 9.7 328 4.7
2011-07-07 06:38:50 51°14.434 2°55.137 329.9 10.5 328 12.1
2011-07-07 06:39:49 51°14.585 2°54.986 329.8 11.2 328 13.6
2011-07-07 06:40:49 51°14.743 2°54.823 325 11.7 328 13
2011-07-07 06:41:49 51°14.911 2°54.642 324.8 12.6 328 13.1
2011-07-07 06:42:49 51°15.113 2°54.519 347.7 13.2 351 10.2
2011-07-07 06:43:49 51°15.335 2°54.494 356 13.3 356 10.7
2011-07-07 06:44:49 51°15.556 2°54.465 355.1 13.3 356 11.4
2011-07-07 06:45:49 51°15.77 2°54.544 26 13.4 28 11.8
2011-07-07 06:46:49 51°15.946 2°54.757 46.4 13.3 47 11.9
2011-07-07 06:47:50 51°16.094 2°55.033 53.1 13.5 52 12.2
2011-07-07 06:48:49 51°16.238 2°55.299 48.1 13.5 46 12.1
2011-07-07 06:49:50 51°16.385 2°55.576 54.1 13.5 53 11.8
2011-07-07 06:50:50 51°16.523 2°55.854 49.4 13.4 48 11.4
2011-07-07 06:51:49 51°16.663 2°56.123 53.8 13.4 53 11.2
2011-07-07 06:52:49 51°16.803 2°56.401 48.9 13.5 47 11.1
2011-07-07 06:53:49 51°16.951 2°56.669 52.2 13.4 52 10.7
2011-07-07 06:54:49 51°17.089 2°56.95 49.9 13.4 48 10.8
2011-07-07 06:55:50 51°17.239 2°57.224 52.8 13.4 53 10.5
2011-07-07 06:56:50 51°17.373 2°57.511 54.1 13.5 53 10.3
2011-07-07 06:57:49 51°17.517 2°57.776 50.2 13.3 50 9.9
2011-07-07 06:58:49 51°17.655 2°58.053 50.4 13.4 50 9.6
2011-07-07 06:59:49 51°17.809 2°58.31 47.7 13.4 48 9.9
2011-07-07 07:00:50 51°17.945 2°58.597 55.2 13.3 52 9.7
2011-07-07 07:01:49 51°18.094 2°58.853 46.7 13.4 47 9.9
2011-07-07 07:02:49 51°18.246 2°59.113 49.7 13.4 50 9.9
2011-07-07 07:03:50 51°18.379 2°59.401 55.3 13.3 53 9.9
2011-07-07 07:04:50 51°18.523 2°59.668 47.3 13.3 46 9.8
2011-07-07 07:05:50 51°18.661 2°59.945 55.2 13.4 54 9.8
2011-07-07 07:06:49 51°18.824 3°0.137 8.1 12.4 2 9.8
2011-07-07 07:07:49 51°18.959 2°59.952 282.2 11.1 278 9.6
2011-07-07 07:08:49 51°18.87 2°59.712 224 11.5 228 9.7
2011-07-07 07:09:49 51°18.768 2°59.446 238.9 11.8 242 9.7
2011-07-07 07:10:49 51°18.663 2°59.185 230.3 11.7 234 10.1
2011-07-07 07:11:50 51°18.548 2°58.928 231.7 11.7 235 10.4
2011-07-07 07:12:50 51°18.449 2°58.659 239.4 11.8 243 10.4
2011-07-07 07:13:49 51°18.347 2°58.399 231.2 11.8 233 10.4
2011-07-07 07:14:49 51°18.227 2°58.153 230.8 11.7 234 10.7
2011-07-07 07:15:49 51°18.123 2°57.888 235.9 11.8 237 11
2011-07-07 07:16:50 51°18.004 2°57.637 228.8 11.7 232 11.1
2011-07-07 07:17:50 51°17.897 2°57.377 235.6 11.9 238 11.1
2011-07-07 07:18:50 51°17.782 2°57.122 228.5 11.9 231 11.2
2011-07-07 07:19:49 51°17.668 2°56.869 229.6 12 231 11.1
2011-07-07 07:20:49 51°17.538 2°56.628 228.7 12 232 11.3
2011-07-07 07:21:50 51°17.422 2°56.364 233.4 11.9 234 11.2
2011-07-07 07:22:50 51°17.294 2°56.12 229 12.1 232 11.4
2011-07-07 07:23:50 51°17.179 2°55.855 233.1 12.2 234 11.4
2011-07-07 07:24:49 51°17.049 2°55.613 227.2 12.3 230 11.3
2011-07-07 07:25:50 51°16.93 2°55.342 233.8 12.2 235 10.9
2011-07-07 07:26:49 51°16.803 2°55.098 226.7 12.1 229 10.7
2011-07-07 07:27:50 51°16.682 2°54.831 233.6 12.3 236 12.4
2011-07-07 07:28:49 51°16.555 2°54.585 227.3 12.2 229 12.2
2011-07-07 07:29:49 51°16.428 2°54.332 233.1 12.2 235 12.1
2011-07-07 07:30:49 51°16.304 2°54.075 227.4 12.2 229 12.2
2011-07-07 07:31:50 51°16.178 2°53.811 234 12.3 236 12.2
2011-07-07 07:32:50 51°16.053 2°53.554 228 12.3 230 12.3
2011-07-07 07:33:49 51°15.932 2°53.297 233.8 12.4 236 13.4
2011-07-07 07:34:49 51°15.81 2°53.034 229.3 12.3 230 12.6
2011-07-07 07:35:49 51°15.678 2°52.781 228.4 12.4 231 12.7
2011-07-07 07:36:50 51°15.565 2°52.498 238 12.4 239 12.8
2011-07-07 07:37:49 51°15.453 2°52.229 234.6 12.4 237 12.6
2011-07-07 07:38:50 51°15.349 2°51.937 240.2 12.5 242 13
2011-07-07 07:39:49 51°15.241 2°51.661 233.7 12.4 235 13
2011-07-07 07:40:49 51°15.127 2°51.384 235.4 12.5 237 12.9
2011-07-07 07:41:49 51°15.005 2°51.117 229.3 12.4 231 12.6
2011-07-07 07:42:50 51°14.881 2°50.843 235.5 12.5 238 12.4
2011-07-07 07:43:50 51°14.76 2°50.576 229 12.5 230 12.4
2011-07-07 07:44:49 51°14.634 2°50.318 232.5 12.5 235 12.2
2011-07-07 07:45:49 51°14.508 2°50.055 228.5 12.5 230 12.1
2011-07-07 07:46:49 51°14.385 2°49.787 235.2 12.5 237 12.1
2011-07-07 07:47:49 51°14.261 2°49.522 228.6 12.5 230 11.8
2011-07-07 07:48:49 51°14.129 2°49.265 228.9 12.5 231 11.6
2011-07-07 07:49:49 51°14.037 2°48.972 255.3 12.6 260 11.7
2011-07-07 07:50:49 51°14.067 2°48.645 291.9 12.7 296 12
2011-07-07 07:51:49 51°14.239 2°48.577 25.6 11.8 31 12.3
2011-07-07 07:52:50 51°14.333 2°48.844 57.3 11.5 48 12.4
2011-07-07 07:53:49 51°14.504 2°49.007 35.5 12.5 35 12.5
2011-07-07 07:54:49 51°14.67 2°49.209 37.4 12.6 36 12.9
2011-07-07 07:55:49 51°14.841 2°49.404 35.2 12.5 31 13.2
2011-07-07 07:56:49 51°15.041 2°49.496 10.3 12.7 9 13.3
2011-07-07 07:57:49 51°15.248 2°49.564 13.6 12.7 14 13.4
2011-07-07 07:58:49 51°15.455 2°49.636 11.9 12.7 12 13.6
2011-07-07 07:59:50 51°15.661 2°49.729 17.6 12.6 18 13.3
2011-07-07 08:00:49 51°15.862 2°49.809 11.3 12.6 9 11.2
2011-07-07 08:01:49 51°16.068 2°49.879 15.6 12.6 16 11
2011-07-07 08:02:49 51°16.272 2°49.959 10.4 12.7 9 11.3
2011-07-07 08:03:49 51°16.48 2°50.02 12.4 12.7 12 11.6
2011-07-07 08:04:49 51°16.685 2°50.104 14.6 12.8 13 12.9
2011-07-07 08:05:49 51°16.894 2°50.165 9.8 12.8 9 12.9
2011-07-07 08:06:49 51°17.101 2°50.227 10.7 12.6 10 10
2011-07-07 08:07:49 51°17.307 2°50.299 16.1 12.8 16 10.6
2011-07-07 08:08:49 51°17.513 2°50.381 11.5 12.8 12 11.5
2011-07-07 08:09:49 51°17.722 2°50.458 13.1 12.8 11 12.5
2011-07-07 08:10:49 51°17.932 2°50.512 10.5 12.8 11 13
2011-07-07 08:11:49 51°18.141 2°50.577 10.7 12.8 10 13.6
2011-07-07 08:12:49 51°18.349 2°50.652 13.2 12.8 12 14.2
2011-07-07 08:13:49 51°18.56 2°50.708 12.1 12.8 11 14.7
2011-07-07 08:14:50 51°18.771 2°50.782 12.7 12.8 12 15
2011-07-07 08:15:49 51°18.975 2°50.856 12.7 12.9 11 15.1
2011-07-07 08:16:49 51°19.187 2°50.909 10 12.8 8 15
2011-07-07 08:17:49 51°19.396 2°50.976 14.7 12.8 12 14.8
2011-07-07 08:18:49 51°19.604 2°51.045 11.9 12.7 9 13.9
2011-07-07 08:19:49 51°19.813 2°51.097 12.4 12.8 11 12.7
2011-07-07 08:20:49 51°20.022 2°51.167 11.8 12.8 8 12.6
2011-07-07 08:21:49 51°20.232 2°51.222 10.7 12.8 9 13.9
2011-07-07 08:22:49 51°20.442 2°51.275 12.8 12.7 11 15.4
2011-07-07 08:23:49 51°20.648 2°51.344 13.9 12.5 11 16.5
2011-07-07 08:24:49 51°20.853 2°51.41 13.6 12.6 9 17.7
2011-07-07 08:25:49 51°21.063 2°51.448 9.5 12.8 6 19.3
2011-07-07 08:26:49 51°21.273 2°51.504 14.2 12.8 10 21.7
2011-07-07 08:27:49 51°21.485 2°51.556 11.2 12.9 8 23
2011-07-07 08:28:49 51°21.697 2°51.618 16.2 12.9 13 24.2
2011-07-07 08:29:49 51°21.907 2°51.685 13.5 12.9 10 24.1
2011-07-07 08:30:49 51°22.122 2°51.731 11 12.8 8 23.5
2011-07-07 08:31:49 51°22.332 2°51.791 14.8 12.9 11 23.6
2011-07-07 08:32:50 51°22.548 2°51.856 12.5 13 8 23.1
2011-07-07 08:33:49 51°22.759 2°51.911 11.2 13.1 9 22.7
2011-07-07 08:34:49 51°22.975 2°51.967 12.5 13.1 10 23.6
2011-07-07 08:35:49 51°23.189 2°52.041 15 13.1 13 22
2011-07-07 08:36:49 51°23.405 2°52.107 12.8 13 11 18.1
2011-07-07 08:37:49 51°23.619 2°52.163 14.7 12.9 11 16.4
2011-07-07 08:38:49 51°23.831 2°52.226 12.9 13 8 17.3
2011-07-07 08:39:49 51°24.044 2°52.273 11.9 13 7 17.8
2011-07-07 08:40:49 51°24.256 2°52.331 13.5 13 10 18.4
2011-07-07 08:41:50 51°24.473 2°52.388 15.4 12.9 12 18.6
2011-07-07 08:42:49 51°24.681 2°52.45 13.9 12.9 9 20.5
2011-07-07 08:43:49 51°24.893 2°52.497 11.7 12.9 8 22.6
2011-07-07 08:44:49 51°25.105 2°52.536 11.1 12.7 8 23.5
2011-07-07 08:45:49 51°25.313 2°52.599 14.4 12.7 9 23
2011-07-07 08:46:49 51°25.522 2°52.654 14.7 12.8 11 24.2
2011-07-07 08:47:49 51°25.719 2°52.777 36.2 12.5 34 25.8
2011-07-07 08:48:49 51°25.848 2°53.026 61 12.3 58 26.7
2011-07-07 08:49:49 51°25.958 2°53.291 58 10.4 52 28.4
2011-07-07 08:50:49 51°26.048 2°53.392 25.5 4.7 12 29.7
2011-07-07 08:51:49 51°26.115 2°53.372 339.6 3.7 335 30.6
2011-07-07 08:52:49 51°26.153 2°53.334 316.9 2 324 30.7
2011-07-07 08:53:49 51°26.172 2°53.31 303.2 1.2 329 30.5
2011-07-07 08:54:49 51°26.189 2°53.297 300.8 1 338 30.8
2011-07-07 08:55:49 51°26.202 2°53.293 310.9 0.7 348 30.7
2011-07-07 08:56:49 51°26.214 2°53.29 319.5 0.7 349 30.9
2011-07-07 08:57:49 51°26.226 2°53.287 326.7 0.7 353 30.8
2011-07-07 08:58:49 51°26.238 2°53.283 326.8 0.7 352 30.9
2011-07-07 08:59:49 51°26.25 2°53.279 322.9 0.8 348 31
2011-07-07 09:00:49 51°26.261 2°53.274 318.3 0.7 345 31
2011-07-07 09:01:49 51°26.271 2°53.274 315.1 0.6 359 30.8
2011-07-07 09:02:49 51°26.281 2°53.276 323.7 0.5 20 30.7
2011-07-07 09:03:49 51°26.288 2°53.279 333.6 0.4 19 30.9
2011-07-07 09:04:49 51°26.295 2°53.28 339.2 0.4 356 30.9
2011-07-07 09:05:49 51°26.302 2°53.28 338.6 0.5 357 30.7
2011-07-07 09:06:49 51°26.31 2°53.279 338.8 0.5 351 30.5
2011-07-07 09:07:49 51°26.319 2°53.278 334.5 0.5 355 30.5
2011-07-07 09:08:49 51°26.327 2°53.275 329.8 0.5 350 30.7
2011-07-07 09:09:49 51°26.337 2°53.27 325.2 0.7 340 30.4
2011-07-07 09:10:49 51°26.348 2°53.262 319.5 0.8 338 30
2011-07-07 09:11:49 51°26.36 2°53.252 315.9 0.8 339 30.3
2011-07-07 09:12:49 51°26.372 2°53.243 314.6 0.8 333 29.8
2011-07-07 09:13:49 51°26.384 2°53.233 310 0.8 326 29.7
2011-07-07 09:14:49 51°26.396 2°53.223 308.4 0.8 335 29.2
2011-07-07 09:15:49 51°26.408 2°53.214 309.1 0.8 338 29
2011-07-07 09:16:49 51°26.42 2°53.207 311.5 0.8 342 29.2
2011-07-07 09:17:49 51°26.432 2°53.199 311 0.7 336 29.3
2011-07-07 09:18:49 51°26.445 2°53.191 309.3 0.9 338 29.5
2011-07-07 09:19:49 51°26.457 2°53.181 307.8 0.8 334 29.5
2011-07-07 09:20:49 51°26.469 2°53.171 307.3 0.8 338 29.9
2011-07-07 09:21:49 51°26.482 2°53.163 310 0.8 335 30
2011-07-07 09:22:49 51°26.493 2°53.155 310.2 0.7 339 29.7
2011-07-07 09:23:49 51°26.505 2°53.148 316.6 0.8 336 29.8
2011-07-07 09:24:49 51°26.517 2°53.138 319.4 0.8 331 29.7
2011-07-07 09:25:49 51°26.53 2°53.127 317.7 0.9 326 29.8
2011-07-07 09:26:49 51°26.542 2°53.114 313 0.9 331 29.5
2011-07-07 09:27:50 51°26.57 2°53.085 338.4 3 335 29.4
2011-07-07 09:28:49 51°26.615 2°53.075 20.4 2.5 2 29.4
2011-07-07 09:29:49 51°26.656 2°53.091 36.2 2.6 23 29.5
2011-07-07 09:30:49 51°26.693 2°53.124 48.2 2.5 35 29.6
2011-07-07 09:31:49 51°26.724 2°53.167 58.8 2.4 44 29.4
2011-07-07 09:32:49 51°26.749 2°53.215 69.4 2.2 55 29.1
2011-07-07 09:33:49 51°26.765 2°53.264 81.4 1.9 71 28.9
2011-07-07 09:34:49 51°26.773 2°53.31 90.8 1.6 80 28.6
2011-07-07 09:35:49 51°26.773 2°53.352 99.5 1.5 94 28.5
2011-07-07 09:36:49 51°26.77 2°53.392 107.5 1.5 104 28.1
2011-07-07 09:37:49 51°26.763 2°53.429 111.9 1.5 109 27.9
2011-07-07 09:38:49 51°26.755 2°53.465 115.3 1.4 110 27.6
2011-07-07 09:39:49 51°26.745 2°53.499 117.7 1.5 117 27.5
2011-07-07 09:40:49 51°26.732 2°53.532 121.3 1.4 124 27.9
2011-07-07 09:41:49 51°26.72 2°53.562 124.7 1.4 129 28.7
2011-07-07 09:42:50 51°26.705 2°53.591 126.5 1.4 129 29.9
2011-07-07 09:43:49 51°26.69 2°53.616 130 1.4 137 30.3
2011-07-07 09:44:49 51°26.672 2°53.639 135.1 1.4 145 30.6
2011-07-07 09:45:49 51°26.653 2°53.658 138.4 1.4 152 31.1
2011-07-07 09:46:49 51°26.631 2°53.673 143 1.5 162 31.2
2011-07-07 09:47:50 51°26.608 2°53.684 147.6 1.4 162 31
2011-07-07 09:48:50 51°26.585 2°53.693 149.3 1.4 169 31.4
2011-07-07 09:49:50 51°26.562 2°53.699 150.9 1.2 169 31.3
2011-07-07 09:50:50 51°26.549 2°53.699 151.1 0.6 197 31.7
2011-07-07 09:51:50 51°26.542 2°53.693 149.2 0.4 218 31.5
2011-07-07 09:52:49 51°26.538 2°53.687 152.1 0.7 191 31.4
2011-07-07 09:53:50 51°26.49 2°53.657 206.5 5.9 219 31.1
2011-07-07 09:54:50 51°26.393 2°53.508 215.7 9.6 221 31.7
2011-07-07 09:55:50 51°26.259 2°53.333 214.1 11.4 218 30.6
2011-07-07 09:56:50 51°26.099 2°53.107 220 13.5 224 29.1
2011-07-07 09:57:49 51°25.938 2°52.865 220.8 13.6 227 25.2
2011-07-07 09:58:49 51°25.796 2°52.581 229.5 13.7 233 26.1
2011-07-07 09:59:49 51°25.653 2°52.301 225.3 13.5 228 24.7
2011-07-07 10:00:49 51°25.502 2°52.031 225 13.7 228 27.4
2011-07-07 10:01:49 51°25.356 2°51.753 229.8 13.7 233 22.3
2011-07-07 10:02:50 51°25.214 2°51.46 228.7 13.7 232 21.8
2011-07-07 10:03:49 51°25.072 2°51.184 225.6 13.6 229 21.9
2011-07-07 10:04:50 51°24.921 2°50.902 227.7 13.7 231 21.8
2011-07-07 10:05:49 51°24.783 2°50.62 228.2 13.7 230 21.9
2011-07-07 10:06:50 51°24.631 2°50.34 226.7 13.7 231 21.8
2011-07-07 10:07:50 51°24.491 2°50.054 228.9 13.6 232 21.8
2011-07-07 10:08:49 51°24.352 2°49.777 225.8 13.6 228 21.6
2011-07-07 10:09:49 51°24.202 2°49.503 225.8 13.6 231 21.6
2011-07-07 10:10:50 51°24.059 2°49.212 228.6 13.6 231 21.6
2011-07-07 10:11:49 51°23.912 2°48.944 226.6 13.6 230 21.8
2011-07-07 10:12:50 51°23.77 2°48.653 228.6 13.6 231 22
2011-07-07 10:13:49 51°23.622 2°48.386 225.1 13.6 228 21.7
2011-07-07 10:14:50 51°23.477 2°48.101 230.2 13.6 233 19.4
2011-07-07 10:15:49 51°23.336 2°47.826 225.9 13.6 229 18.9
2011-07-07 10:16:50 51°23.186 2°47.547 228.7 13.6 231 19.3
2011-07-07 10:17:49 51°23.041 2°47.28 219 13.5 221 20.4
2011-07-07 10:18:50 51°22.85 2°47.089 203.4 13.4 207 19.3
2011-07-07 10:19:49 51°22.649 2°46.953 197.1 13.4 203 17.4
2011-07-07 10:20:50 51°22.44 2°46.809 199 13.3 204 19
2011-07-07 10:21:49 51°22.241 2°46.661 203 13.5 209 18.8
2011-07-07 10:22:50 51°22.054 2°46.449 212.6 13.5 218 20.2
2011-07-07 10:23:50 51°21.906 2°46.175 233.1 13.8 236 21.3
2011-07-07 10:24:49 51°21.783 2°45.872 232.7 13.8 235 21.9
2011-07-07 10:25:50 51°21.652 2°45.563 231.8 13.8 235 22.5
2011-07-07 10:26:49 51°21.533 2°45.256 237.2 13.8 240 22.9
2011-07-07 10:27:50 51°21.414 2°44.934 234.9 13.8 238 23.2
2011-07-07 10:28:50 51°21.287 2°44.627 233.6 13.9 237 23.3
2011-07-07 10:29:49 51°21.172 2°44.315 238.4 13.8 241 23.6
2011-07-07 10:30:50 51°21.05 2°44 232.6 13.7 236 23.5
2011-07-07 10:31:49 51°20.934 2°43.691 236.2 13.7 239 23
2011-07-07 10:32:50 51°20.812 2°43.373 234.2 13.8 238 22.7
2011-07-07 10:33:50 51°20.686 2°43.067 233.4 13.9 236 22.3
2011-07-07 10:34:49 51°20.565 2°42.757 238.1 14 240 21.4
2011-07-07 10:35:49 51°20.445 2°42.439 236 14 238 18.6
2011-07-07 10:36:49 51°20.278 2°42.198 203 13.4 207 14.1
2011-07-07 10:37:49 51°20.068 2°42.173 159.6 12.4 163 19.4
2011-07-07 10:38:49 51°19.884 2°42.316 142.8 12.4 149 22.9
2011-07-07 10:39:50 51°19.725 2°42.525 128.3 12.1 131 23.8
2011-07-07 10:40:49 51°19.592 2°42.76 127.6 12.1 131 24
2011-07-07 10:41:49 51°19.448 2°42.986 132.1 12.2 140 23.3
2011-07-07 10:42:49 51°19.29 2°43.191 134.8 12.2 138 23
2011-07-07 10:43:49 51°19.142 2°43.41 123.6 11.9 127 22.5
2011-07-07 10:44:49 51°19.031 2°43.678 116.4 12 122 21.5
2011-07-07 10:45:49 51°18.929 2°43.949 118.2 12.2 123 21.2
2011-07-07 10:46:49 51°18.818 2°44.219 119.1 12 124 16.6
2011-07-07 10:47:49 51°18.701 2°44.475 121 11.6 128 9.5
2011-07-07 10:48:50 51°18.579 2°44.726 121.8 11.7 129 13
2011-07-07 10:49:50 51°18.446 2°44.964 127.5 12.2 136 17.8
2011-07-07 10:50:50 51°18.293 2°45.18 131.5 12.4 140 18.8
2011-07-07 10:51:49 51°18.138 2°45.392 130.4 12.5 138 18.3
2011-07-07 10:52:50 51°17.984 2°45.622 128.4 12.4 134 17.2
2011-07-07 10:53:49 51°17.85 2°45.833 131.3 8.9 141 15.7
2011-07-07 10:54:50 51°17.792 2°45.949 87.7 3.5 92 14.5
2011-07-07 10:55:50 51°17.825 2°46.009 33.8 5 30 15.5
2011-07-07 10:56:50 51°17.918 2°46.1 25.7 5.4 18 15
2011-07-07 10:57:50 51°17.976 2°46.097 356.6 2.6 337 15.3
2011-07-07 10:58:50 51°17.997 2°46.061 333.2 1.5 293 15.8
2011-07-07 10:59:50 51°17.996 2°46.027 310.5 1.2 253 15.3
2011-07-07 11:00:50 51°17.988 2°46.001 298.1 1.1 239 14.6
2011-07-07 11:01:50 51°17.978 2°45.979 299.1 0.8 228 15.4
2011-07-07 11:02:49 51°17.968 2°45.965 312.6 0.9 212 16
2011-07-07 11:03:49 51°17.955 2°45.953 324.4 1 212 15.8
2011-07-07 11:04:50 51°17.94 2°45.938 331.3 1 214 16.2
2011-07-07 11:05:50 51°17.927 2°45.923 332.6 1 217 16.2
2011-07-07 11:06:50 51°17.914 2°45.909 333.2 1 215 16.2
2011-07-07 11:07:49 51°17.902 2°45.895 333.1 0.9 214 15.8
2011-07-07 11:08:50 51°17.89 2°45.881 330.4 0.9 214 16.1
2011-07-07 11:09:50 51°17.878 2°45.868 329.3 0.9 213 15.5
2011-07-07 11:10:50 51°17.865 2°45.853 329.2 1 215 13.7
2011-07-07 11:11:49 51°17.853 2°45.84 326.6 0.9 218 15.7
2011-07-07 11:12:50 51°17.841 2°45.826 325.1 0.9 216 15.9
2011-07-07 11:13:49 51°17.829 2°45.812 323.9 0.8 220 16.4
2011-07-07 11:14:49 51°17.818 2°45.797 324 0.8 219 16.2
2011-07-07 11:15:50 51°17.807 2°45.783 324 0.8 220 16.2
2011-07-07 11:16:50 51°17.796 2°45.769 322.9 0.9 220 15.9
2011-07-07 11:17:50 51°17.784 2°45.753 320.7 0.9 218 15.8
2011-07-07 11:18:49 51°17.772 2°45.737 321.4 1 217 15.1
2011-07-07 11:19:50 51°17.759 2°45.722 323.3 1 216 14.1
2011-07-07 11:20:50 51°17.746 2°45.708 322.6 0.9 218 15.4
2011-07-07 11:21:50 51°17.735 2°45.694 322.4 0.9 220 15.8
2011-07-07 11:22:50 51°17.723 2°45.679 321.6 0.9 220 15.8
2011-07-07 11:23:49 51°17.712 2°45.665 321.9 0.9 219 15.8
2011-07-07 11:24:50 51°17.7 2°45.65 324.5 0.9 216 15.8
2011-07-07 11:25:50 51°17.687 2°45.635 326 0.9 217 15.5
2011-07-07 11:26:50 51°17.675 2°45.62 326.4 1 217 15
2011-07-07 11:27:50 51°17.662 2°45.604 327.9 1 222 15.1
2011-07-07 11:28:50 51°17.651 2°45.581 326.5 1.6 283 13.3
2011-07-07 11:29:49 51°17.714 2°45.475 336.2 7.9 329 15.4
2011-07-07 11:30:49 51°17.861 2°45.351 344.5 10.8 341 17
2011-07-07 11:31:50 51°18.04 2°45.27 0.2 10.8 356 18
2011-07-07 11:32:50 51°18.225 2°45.216 346.5 11.8 339 19.1
2011-07-07 11:33:50 51°18.358 2°45.202 28.2 4.5 21 18.8
2011-07-07 11:34:50 51°18.394 2°45.243 54 1.7 59 19.1
2011-07-07 11:35:49 51°18.398 2°45.279 71.2 1.3 93 18.9
2011-07-07 11:36:49 51°18.393 2°45.312 80.5 1.3 116 19.2
2011-07-07 11:37:50 51°18.381 2°45.342 89.4 1.4 131 19.3
2011-07-07 11:38:49 51°18.363 2°45.368 99.1 1.6 142 19.6
2011-07-07 11:39:50 51°18.34 2°45.393 106.5 1.7 150 19.6
2011-07-07 11:40:50 51°18.312 2°45.413 113.7 1.9 159 19.6
2011-07-07 11:41:50 51°18.282 2°45.431 116.5 1.9 160 19.3
2011-07-07 11:42:49 51°18.252 2°45.448 114.9 1.8 157 19.3
2011-07-07 11:43:49 51°18.225 2°45.468 110.9 1.8 156 19.3
2011-07-07 11:44:50 51°18.198 2°45.489 108.4 1.8 152 19
2011-07-07 11:45:50 51°18.172 2°45.51 109.7 1.7 153 18.8
2011-07-07 11:46:50 51°18.146 2°45.531 107.3 1.8 154 18.5
2011-07-07 11:47:49 51°18.122 2°45.552 105.7 1.7 152 18.3
2011-07-07 11:48:49 51°18.099 2°45.575 102.5 1.6 147 18
2011-07-07 11:49:49 51°18.077 2°45.6 100.3 1.6 147 18
2011-07-07 11:50:49 51°18.055 2°45.623 97.3 1.6 146 17.5
2011-07-07 11:51:49 51°18.035 2°45.646 95.9 1.6 145 17
2011-07-07 11:52:49 51°18.012 2°45.669 104.1 1.7 150 16.9
2011-07-07 11:53:49 51°17.985 2°45.69 112.1 1.9 157 17.1
2011-07-07 11:54:49 51°17.952 2°45.709 121.1 2 167 16.9
2011-07-07 11:55:49 51°17.921 2°45.731 100.5 2 136 16.3
2011-07-07 11:56:49 51°17.917 2°45.767 49.1 1.4 54 16.2
2011-07-07 11:57:50 51°17.942 2°45.792 34.5 2 29 16.9
2011-07-07 11:58:49 51°17.987 2°45.842 41.6 5.5 40 17.1
2011-07-07 11:59:49 51°18.056 2°45.984 55.5 6.4 58 17
2011-07-07 12:00:49 51°18.105 2°46.115 55.7 6.7 57 14.9
2011-07-07 12:01:50 51°18.192 2°46.332 56.1 10.9 58 16
2011-07-07 12:02:49 51°18.289 2°46.575 57.8 11.1 59 17.2
2011-07-07 12:03:49 51°18.379 2°46.83 56.8 11 57 17.4
2011-07-07 12:04:49 51°18.474 2°47.081 57 11 58 17.2
2011-07-07 12:05:50 51°18.569 2°47.335 55.7 11.1 59 16.6
2011-07-07 12:06:49 51°18.664 2°47.582 56.1 11.1 56 16.4
2011-07-07 12:07:50 51°18.764 2°47.838 56.9 11.3 57 15.2
2011-07-07 12:08:49 51°18.867 2°48.082 56.5 11.4 59 15.6
2011-07-07 12:09:49 51°18.966 2°48.34 58.8 11.4 60 15.1
2011-07-07 12:10:49 51°19.07 2°48.592 56.4 11.3 56 14.4
2011-07-07 12:11:49 51°19.172 2°48.842 56.6 11.2 56 14.4
2011-07-07 12:12:49 51°19.273 2°49.091 58 11.2 60 12.9
2011-07-07 12:13:49 51°19.376 2°49.337 54.6 11.1 54 14
2011-07-07 12:14:49 51°19.475 2°49.587 59.6 11.2 60 13.8
2011-07-07 12:15:50 51°19.575 2°49.842 55.5 11.1 56 13.5
2011-07-07 12:16:49 51°19.675 2°50.083 57.2 11.1 60 13.6
2011-07-07 12:17:49 51°19.776 2°50.333 57.5 11.3 58 13.3
2011-07-07 12:18:49 51°19.874 2°50.586 57.5 11.1 57 12.8
2011-07-07 12:19:49 51°19.976 2°50.833 56.3 11 57 12.8
2011-07-07 12:20:49 51°20.071 2°51.084 60.6 11.1 61 12.6
2011-07-07 12:21:49 51°20.166 2°51.335 55.6 11.1 53 11.8
2011-07-07 12:22:49 51°20.273 2°51.579 54.6 11.1 57 12.6
2011-07-07 12:23:49 51°20.373 2°51.828 58 11.1 57 13.7
2011-07-07 12:24:49 51°20.469 2°52.08 58.8 11.2 61 14.2
2011-07-07 12:25:49 51°20.571 2°52.331 55.6 11.1 58 14
2011-07-07 12:26:50 51°20.674 2°52.583 56 11.2 57 15
2011-07-07 12:27:49 51°20.769 2°52.832 60.1 11.1 60 15.2
2011-07-07 12:28:49 51°20.865 2°53.082 59.4 11 60 15.9
2011-07-07 12:29:50 51°20.964 2°53.337 54.8 11.2 55 16.1
2011-07-07 12:30:49 51°21.07 2°53.575 55 11.2 55 16.2
2011-07-07 12:31:49 51°21.165 2°53.831 60.6 11.3 61 16.4
2011-07-07 12:32:49 51°21.264 2°54.089 57.6 11.3 59 16.6
2011-07-07 12:33:49 51°21.366 2°54.347 55.1 11.5 55 16.8
2011-07-07 12:34:50 51°21.472 2°54.601 58.8 11.2 58 16.8
2011-07-07 12:35:49 51°21.572 2°54.848 55 11.3 56 16.8
2011-07-07 12:36:50 51°21.677 2°55.101 59.1 11.1 58 17
2011-07-07 12:37:49 51°21.774 2°55.352 57.7 11.4 58 17.2
2011-07-07 12:38:49 51°21.886 2°55.593 53.5 11.2 53 17.2
2011-07-07 12:39:49 51°22.002 2°55.829 50.7 11.2 50 17.3
2011-07-07 12:40:50 51°22.12 2°56.069 51.4 11.3 50 17.4
2011-07-07 12:41:49 51°22.237 2°56.3 50.8 11.4 50 17.6
2011-07-07 12:42:49 51°22.323 2°56.459 50.9 5.6 52 17.7
2011-07-07 12:43:49 51°22.367 2°56.554 50.7 3.4 43 17.6
2011-07-07 12:44:49 51°22.413 2°56.546 342 2.8 315 18
2011-07-07 12:45:49 51°22.42 2°56.505 324.5 1.2 258 18
2011-07-07 12:46:49 51°22.413 2°56.475 323.4 1.2 243 18
2011-07-07 12:47:49 51°22.402 2°56.453 331.4 1 224 17.7
2011-07-07 12:48:49 51°22.389 2°56.435 345.4 1.2 217 17.8
2011-07-07 12:49:49 51°22.371 2°56.416 355.1 1.3 214 18
2011-07-07 12:50:49 51°22.355 2°56.396 1.2 1.1 221 17.7
2011-07-07 12:51:49 51°22.343 2°56.378 2 1 226 17.8
2011-07-07 12:52:49 51°22.333 2°56.36 358.1 0.9 232 17.7
2011-07-07 12:53:49 51°22.325 2°56.339 351.2 0.8 242 17.9
2011-07-07 12:54:49 51°22.318 2°56.318 340.8 0.9 242 17.7
2011-07-07 12:55:49 51°22.312 2°56.297 333.3 0.8 247 17.8
2011-07-07 12:56:49 51°22.305 2°56.275 325.5 0.9 243 17.7
2011-07-07 12:57:49 51°22.298 2°56.253 322.2 1 244 17.9
2011-07-07 12:58:49 51°22.292 2°56.232 321.3 0.8 243 17.8
2011-07-07 12:59:49 51°22.284 2°56.212 321 0.9 243 18
2011-07-07 13:00:49 51°22.278 2°56.192 321.2 0.9 241 17.8
2011-07-07 13:01:49 51°22.27 2°56.171 322.1 0.9 241 17.8
2011-07-07 13:02:49 51°22.263 2°56.153 324.6 0.9 235 17.7
2011-07-07 13:03:49 51°22.254 2°56.133 323.6 0.9 245 18.1
2011-07-07 13:04:49 51°22.247 2°56.112 321.7 0.9 243 18
2011-07-07 13:05:49 51°22.24 2°56.092 321.6 0.8 244 17.7
2011-07-07 13:06:49 51°22.233 2°56.071 321.1 0.9 244 18
2011-07-07 13:07:49 51°22.227 2°56.052 319.7 0.8 244 18.2
2011-07-07 13:08:49 51°22.221 2°56.035 323.3 0.9 234 18
2011-07-07 13:09:49 51°22.212 2°56.018 329.6 1.2 242 18.2
2011-07-07 13:10:49 51°22.203 2°56.002 336.8 0.8 225 18.1
2011-07-07 13:11:49 51°22.192 2°55.986 342.6 0.8 214 17.9
2011-07-07 13:12:49 51°22.181 2°55.972 347.9 0.9 220 17.9
2011-07-07 13:13:49 51°22.17 2°55.957 350.6 0.9 217 18
2011-07-07 13:14:49 51°22.159 2°55.943 353.6 0.8 218 17.7
2011-07-07 13:15:49 51°22.16 2°55.929 8.5 1.6 352 18
2011-07-07 13:16:49 51°22.176 2°55.941 52.9 1 61 17.8
2011-07-07 13:17:49 51°22.179 2°55.97 65.2 1.2 83 17.9
2011-07-07 13:18:49 51°22.181 2°56.003 65.6 1.3 85 17.7
2011-07-07 13:19:49 51°22.181 2°56.037 69.3 1.3 93 17.9
2011-07-07 13:20:49 51°22.178 2°56.075 74.1 1.5 102 18.1
2011-07-07 13:21:49 51°22.172 2°56.114 75.7 1.5 105 18
2011-07-07 13:22:49 51°22.165 2°56.155 79.2 1.7 108 18
2011-07-07 13:23:49 51°22.154 2°56.197 85.1 1.8 116 18
2011-07-07 13:24:49 51°22.141 2°56.24 90.1 1.9 120 18
2011-07-07 13:25:49 51°22.123 2°56.283 95.8 1.9 125 17.9
2011-07-07 13:26:49 51°22.103 2°56.324 101.4 2.1 133 18
2011-07-07 13:27:49 51°22.078 2°56.365 108.9 2.2 138 17.9
2011-07-07 13:28:50 51°22.047 2°56.402 115.8 2.3 145 18
2011-07-07 13:29:49 51°22.014 2°56.437 120.1 2.4 147 17.7
2011-07-07 13:30:49 51°21.98 2°56.473 124.3 2.5 149 18
2011-07-07 13:31:49 51°21.942 2°56.506 130.3 2.6 154 17.6
2011-07-07 13:32:49 51°21.901 2°56.534 138.4 2.8 161 17.7
2011-07-07 13:33:49 51°21.856 2°56.556 147.7 2.9 166 17.5
2011-07-07 13:34:49 51°21.807 2°56.568 158.9 3 175 17.5
2011-07-07 13:35:49 51°21.756 2°56.569 168.5 3.2 184 17.3
2011-07-07 13:36:49 51°21.703 2°56.559 178.7 3.3 191 17.1
2011-07-07 13:37:49 51°21.65 2°56.538 187.2 3.4 198 16.9
2011-07-07 13:38:49 51°21.598 2°56.507 196.6 3.3 202 16.7
2011-07-07 13:39:49 51°21.548 2°56.469 202.8 3.4 207 16.5
2011-07-07 13:40:49 51°21.496 2°56.426 204.7 4.2 207 16.4
2011-07-07 13:41:49 51°21.383 2°56.339 201.6 10.1 205 16
2011-07-07 13:42:49 51°21.206 2°56.204 203.9 13.3 207 15.2
2011-07-07 13:43:49 51°21.007 2°56.031 206.2 13.6 208 14.7
2011-07-07 13:44:50 51°20.8 2°55.871 201.9 13.5 205 14.4
2011-07-07 13:45:49 51°20.605 2°55.701 206.8 13.6 209 13.9
2011-07-07 13:46:49 51°20.413 2°55.512 210.2 13.5 211 13.6
2011-07-07 13:47:49 51°20.221 2°55.323 209.9 13.5 213 13.5
2011-07-07 13:48:49 51°20.028 2°55.137 205.4 13.5 208 13.4
2011-07-07 13:49:50 51°19.83 2°54.954 207.9 13.5 211 13
2011-07-07 13:50:50 51°19.64 2°54.761 210 13.5 213 12.8
2011-07-07 13:51:50 51°19.446 2°54.579 205.2 13.4 207 12.6
2011-07-07 13:52:49 51°19.257 2°54.397 210.5 13.5 213 12.3
2011-07-07 13:53:50 51°19.059 2°54.215 205.5 13.5 209 12.2
2011-07-07 13:54:50 51°18.867 2°54.029 210.2 13.5 212 12
2011-07-07 13:55:50 51°18.674 2°53.847 206.2 13.5 208 11.9
2011-07-07 13:56:49 51°18.481 2°53.676 209.8 13.5 212 11.4
2011-07-07 13:57:50 51°18.288 2°53.479 210.9 13.5 212 11.2
2011-07-07 13:58:49 51°18.1 2°53.292 209.8 13.5 211 11.1
2011-07-07 13:59:50 51°17.899 2°53.124 206.9 13.4 209 11
2011-07-07 14:00:49 51°17.711 2°52.95 208.4 13.3 209 10.7
2011-07-07 14:01:49 51°17.514 2°52.789 207.5 13.2 210 10.8
2011-07-07 14:02:49 51°17.325 2°52.606 211.3 13.2 211 10.7
2011-07-07 14:03:49 51°17.119 2°52.593 158.9 12.8 160 10.4
2011-07-07 14:04:50 51°16.928 2°52.765 144.1 13.1 146 10
2011-07-07 14:05:49 51°16.749 2°52.952 146.3 13.2 149 11.2
2011-07-07 14:06:50 51°16.556 2°53.125 149.7 13 153 12.4
2011-07-07 14:07:49 51°16.355 2°53.236 161.6 12.9 163 12.7
2011-07-07 14:08:50 51°16.146 2°53.334 159 12.8 163 12.5
2011-07-07 14:09:50 51°15.945 2°53.441 159.3 12.7 162 12.2
2011-07-07 14:10:49 51°15.747 2°53.548 153.7 12.7 156 13.3
2011-07-07 14:11:50 51°15.563 2°53.727 139.3 12.6 142 13.1
2011-07-07 14:12:50 51°15.395 2°53.935 140.2 12.7 144 13.4
2011-07-07 14:13:50 51°15.226 2°54.141 140.8 12.7 143 13
2011-07-07 14:14:49 51°15.06 2°54.341 141.9 12.7 145 12.7
2011-07-07 14:15:50 51°14.886 2°54.543 138 12.7 139 13.3
2011-07-07 14:16:50 51°14.724 2°54.762 136.7 12.6 140 12.5
2011-07-07 14:17:50 51°14.563 2°54.978 138.9 12.6 141 12.6
2011-07-07 14:18:49 51°14.39 2°55.159 145.6 11.6 147 10.8
2011-07-07 14:19:50 51°14.259 2°55.3 144.4 8.2 146 11.8
2011-07-07 14:20:50 51°14.153 2°55.397 153.3 6.3 156 11.7
2011-07-07 14:21:50 51°14.044 2°55.476 154.1 8.4 158 11.9
2011-07-07 14:22:50 51°13.919 2°55.565 154.5 7 156 12.2
2011-07-07 14:23:49 51°13.829 2°55.632 150.8 5.5 152 12
2011-07-07 14:24:49 51°13.759 2°55.714 133.5 5.1 135 11.1
2011-07-07 14:25:49 51°13.704 2°55.814 126.6 4.9 127 12.2
2011-07-07 14:26:50 51°13.66 2°55.919 117.8 4.3 118 11.2
2011-07-07 14:27:50 51°13.639 2°56 104.5 2.4 109 8.6